createdAt,value
2023-04-13T00:00:11.461Z,630.87
2023-04-13T00:01:06.583Z,634.47
2023-04-13T00:02:01.856Z,636.29
2023-04-13T00:02:56.960Z,634.47
2023-04-13T00:03:52.293Z,641.19
2023-04-13T00:04:51.386Z,643.04
2023-04-13T00:05:46.786Z,635.08
2023-04-13T00:06:41.494Z,624.38
2023-04-13T00:07:36.606Z,620.31
2023-04-13T00:08:31.588Z,618.58
2023-04-13T00:09:30.920Z,626.72
2023-04-13T00:10:25.919Z,636.29
2023-04-13T00:11:21.058Z,641.19
2023-04-13T00:12:16.081Z,650.57
2023-04-13T00:13:11.329Z,653.76
2023-04-13T00:14:06.396Z,650.57
2023-04-13T00:15:01.544Z,653.76
2023-04-13T00:15:56.701Z,648.67
2023-04-13T00:16:51.903Z,639.96
2023-04-13T00:17:47.052Z,637.51
2023-04-13T00:18:42.403Z,633.27
2023-04-13T00:19:37.723Z,632.07
2023-04-13T00:20:32.729Z,631.47
2023-04-13T00:21:27.851Z,626.13
2023-04-13T00:22:22.909Z,622.05
2023-04-13T00:23:18.308Z,625.55
2023-04-13T00:24:13.473Z,620.89
2023-04-13T00:25:08.483Z,622.05
2023-04-13T00:26:03.665Z,623.79
2023-04-13T00:26:58.811Z,620.89
2023-04-13T00:27:53.976Z,602.92
2023-04-13T00:28:49.412Z,610.65
2023-04-13T00:29:44.451Z,618.01
2023-04-13T00:30:39.635Z,622.63
2023-04-13T00:31:34.857Z,618.58
2023-04-13T00:32:30.599Z,614.03
2023-04-13T00:33:25.775Z,616.87
2023-04-13T00:34:20.802Z,620.89
2023-04-13T00:35:15.828Z,617.44
2023-04-13T00:36:10.841Z,619.16
2023-04-13T00:37:05.916Z,616.30
2023-04-13T00:38:01.063Z,626.13
2023-04-13T00:38:56.275Z,624.38
2023-04-13T00:39:51.415Z,624.38
2023-04-13T00:40:46.674Z,617.44
2023-04-13T00:41:41.718Z,612.90
2023-04-13T00:42:36.938Z,610.09
2023-04-13T00:43:32.108Z,608.98
2023-04-13T00:44:27.319Z,608.42
2023-04-13T00:45:22.482Z,605.66
2023-04-13T00:46:17.697Z,553.85
2023-04-13T00:47:12.812Z,568.00
2023-04-13T00:48:08.114Z,570.92
2023-04-13T00:49:03.304Z,575.35
2023-04-13T00:49:58.548Z,577.84
2023-04-13T00:50:53.525Z,574.86
2023-04-13T00:51:48.696Z,574.36
2023-04-13T00:52:43.974Z,573.37
2023-04-13T00:53:39.255Z,578.85
2023-04-13T00:54:34.157Z,578.35
2023-04-13T00:55:29.523Z,580.86
2023-04-13T00:56:24.583Z,588.55
2023-04-13T00:57:19.734Z,587.00
2023-04-13T00:58:15.095Z,597.52
2023-04-13T00:59:10.115Z,601.84
2023-04-13T01:00:05.263Z,601.29
2023-04-13T01:01:00.448Z,605.11
2023-04-13T01:01:55.618Z,604.02
2023-04-13T01:02:51.241Z,595.39
2023-04-13T01:03:46.326Z,594.86
2023-04-13T01:04:41.530Z,593.27
2023-04-13T01:05:36.521Z,594.33
2023-04-13T01:06:31.837Z,591.16
2023-04-13T01:07:26.999Z,597.52
2023-04-13T01:08:22.020Z,602.38
2023-04-13T01:09:17.456Z,602.38
2023-04-13T01:10:12.645Z,605.11
2023-04-13T01:11:07.653Z,607.32
2023-04-13T01:12:02.807Z,602.38
2023-04-13T01:12:58.080Z,597.52
2023-04-13T01:13:53.330Z,587.52
2023-04-13T01:14:48.297Z,588.04
2023-04-13T01:15:43.445Z,588.04
2023-04-13T01:16:38.586Z,593.27
2023-04-13T01:17:33.785Z,590.64
2023-04-13T01:18:28.882Z,604.56
2023-04-13T01:19:24.106Z,604.02
2023-04-13T01:20:19.238Z,611.77
2023-04-13T01:21:14.488Z,613.46
2023-04-13T01:22:09.475Z,619.16
2023-04-13T01:23:04.801Z,615.16
2023-04-13T01:23:59.953Z,611.77
2023-04-13T01:24:54.986Z,610.09
2023-04-13T01:25:50.348Z,606.76
2023-04-13T01:26:45.372Z,594.33
2023-04-13T01:27:40.572Z,589.60
2023-04-13T01:28:35.753Z,589.08
2023-04-13T01:29:30.919Z,582.90
2023-04-13T01:30:26.133Z,579.85
2023-04-13T01:31:21.351Z,578.85
2023-04-13T01:32:16.396Z,568.97
2023-04-13T01:33:11.704Z,568.97
2023-04-13T01:34:06.840Z,571.90
2023-04-13T01:35:01.822Z,581.88
2023-04-13T01:35:57.030Z,582.90
2023-04-13T01:36:52.163Z,580.36
2023-04-13T01:37:47.454Z,587.52
2023-04-13T01:38:42.490Z,587.00
2023-04-13T01:39:37.670Z,591.16
2023-04-13T01:40:32.839Z,584.94
2023-04-13T01:41:28.024Z,581.88
2023-04-13T01:42:23.333Z,570.43
2023-04-13T01:43:18.539Z,557.55
2023-04-13T01:44:13.424Z,543.02
2023-04-13T01:45:08.510Z,539.51
2023-04-13T01:46:03.541Z,530.07
2023-04-13T01:46:58.621Z,537.77
2023-04-13T01:47:53.642Z,543.91
2023-04-13T01:48:48.787Z,552.01
2023-04-13T01:49:43.777Z,555.69
2023-04-13T01:50:38.812Z,564.63
2023-04-13T01:51:33.822Z,572.39
2023-04-13T01:52:28.888Z,573.87
2023-04-13T01:53:23.872Z,579.35
2023-04-13T01:54:19.110Z,586.48
2023-04-13T01:55:14.116Z,588.55
2023-04-13T01:56:09.357Z,589.60
2023-04-13T01:57:04.346Z,597.52
2023-04-13T01:57:59.508Z,599.13
2023-04-13T01:58:54.573Z,592.21
2023-04-13T01:59:49.672Z,591.16
2023-04-13T02:00:44.691Z,585.97
2023-04-13T02:01:39.701Z,588.55
2023-04-13T02:02:34.891Z,590.12
2023-04-13T02:03:29.980Z,590.64
2023-04-13T02:04:24.974Z,586.48
2023-04-13T02:05:20.049Z,581.88
2023-04-13T02:06:15.050Z,583.92
2023-04-13T02:07:10.095Z,589.08
2023-04-13T02:08:05.153Z,591.16
2023-04-13T02:09:00.232Z,593.80
2023-04-13T02:09:55.258Z,590.12
2023-04-13T02:10:50.298Z,588.55
2023-04-13T02:11:45.308Z,580.86
2023-04-13T02:12:40.374Z,576.35
2023-04-13T02:13:35.413Z,574.36
2023-04-13T02:14:30.620Z,575.35
2023-04-13T02:15:25.940Z,571.90
2023-04-13T02:16:21.055Z,568.97
2023-04-13T02:17:16.343Z,570.92
2023-04-13T02:18:11.595Z,576.84
2023-04-13T02:19:06.763Z,570.43
2023-04-13T02:20:02.093Z,569.46
2023-04-13T02:20:57.117Z,563.68
2023-04-13T02:21:52.471Z,553.85
2023-04-13T02:22:47.467Z,552.01
2023-04-13T02:23:42.656Z,551.56
2023-04-13T02:24:37.811Z,543.47
2023-04-13T02:25:33.003Z,539.51
2023-04-13T02:26:28.154Z,533.47
2023-04-13T02:27:23.485Z,530.07
2023-04-13T02:28:18.492Z,523.83
2023-04-13T02:29:13.692Z,523.01
2023-04-13T02:30:08.870Z,527.56
2023-04-13T02:31:04.022Z,530.07
2023-04-13T02:31:59.351Z,531.34
2023-04-13T02:32:54.432Z,529.65
2023-04-13T02:33:49.448Z,528.39
2023-04-13T02:34:44.822Z,527.14
2023-04-13T02:35:39.865Z,525.89
2023-04-13T02:36:35.005Z,525.48
2023-04-13T02:37:30.172Z,529.65
2023-04-13T02:38:25.397Z,529.23
2023-04-13T02:39:20.521Z,525.07
2023-04-13T02:40:15.895Z,520.56
2023-04-13T02:41:10.772Z,517.73
2023-04-13T02:42:05.998Z,513.74
2023-04-13T02:43:01.101Z,515.73
2023-04-13T02:43:56.549Z,510.98
2023-04-13T02:44:51.451Z,512.95
2023-04-13T02:45:46.528Z,515.33
2023-04-13T02:46:41.657Z,506.33
2023-04-13T02:47:36.861Z,503.27
2023-04-13T02:48:32.127Z,505.18
2023-04-13T02:49:29.547Z,502.51
2023-04-13T02:50:24.825Z,501.76
2023-04-13T02:51:19.858Z,501.76
2023-04-13T02:52:15.205Z,495.05
2023-04-13T02:53:10.353Z,492.86
2023-04-13T02:54:05.495Z,498.01
2023-04-13T02:55:00.580Z,492.49
2023-04-13T02:55:55.577Z,492.86
2023-04-13T02:56:50.630Z,487.45
2023-04-13T02:57:45.640Z,496.16
2023-04-13T02:58:40.774Z,492.13
2023-04-13T02:59:35.763Z,497.64
2023-04-13T03:00:31.008Z,493.95
2023-04-13T03:01:26.508Z,494.32
2023-04-13T03:02:21.744Z,492.86
2023-04-13T03:03:16.635Z,484.62
2023-04-13T03:04:11.724Z,487.81
2023-04-13T03:05:06.748Z,494.32
2023-04-13T03:06:01.834Z,493.22
2023-04-13T03:06:56.867Z,487.10
2023-04-13T03:07:51.971Z,480.08
2023-04-13T03:08:46.969Z,474.95
2023-04-13T03:09:42.116Z,466.64
2023-04-13T03:10:37.147Z,464.37
2023-04-13T03:11:32.221Z,462.44
2023-04-13T03:12:27.297Z,455.49
2023-04-13T03:13:22.341Z,454.25
2023-04-13T03:14:17.367Z,456.42
2023-04-13T03:15:12.477Z,457.99
2023-04-13T03:16:07.669Z,463.72
2023-04-13T03:17:02.589Z,442.20
2023-04-13T03:17:59.557Z,410.11
2023-04-13T03:18:54.610Z,398.11
2023-04-13T03:19:49.643Z,410.86
2023-04-13T03:20:44.819Z,421.51
2023-04-13T03:21:39.861Z,407.10
2023-04-13T03:22:34.722Z,411.37
2023-04-13T03:23:29.808Z,415.47
2023-04-13T03:24:24.936Z,420.45
2023-04-13T03:25:20.260Z,425.82
2023-04-13T03:26:15.326Z,441.03
2023-04-13T03:27:10.509Z,443.96
2023-04-13T03:28:05.560Z,449.35
2023-04-13T03:29:00.704Z,457.99
2023-04-13T03:29:55.990Z,461.48
2023-04-13T03:30:51.094Z,470.60
2023-04-13T03:31:46.667Z,473.27
2023-04-13T03:32:41.826Z,454.56
2023-04-13T03:33:37.103Z,453.32
2023-04-13T03:34:32.286Z,444.85
2023-04-13T03:35:27.753Z,360.70
2023-04-13T03:36:22.651Z,255.21
2023-04-13T03:37:17.888Z,276.97
2023-04-13T03:38:12.980Z,304.19
2023-04-13T03:39:08.093Z,336.65
2023-04-13T03:40:03.305Z,364.71
2023-04-13T03:40:58.443Z,386.35
2023-04-13T03:41:53.629Z,403.41
2023-04-13T03:42:48.808Z,417.82
2023-04-13T03:43:43.991Z,429.94
2023-04-13T03:44:39.314Z,444.85
2023-04-13T03:45:34.399Z,439.57
2023-04-13T03:46:29.595Z,438.71
2023-04-13T03:47:24.766Z,423.12
2023-04-13T03:48:19.915Z,436.98
2023-04-13T03:49:15.096Z,456.42
2023-04-13T03:50:10.137Z,467.95
2023-04-13T03:51:05.340Z,463.08
2023-04-13T03:52:00.481Z,457.67
2023-04-13T03:52:55.616Z,468.28
2023-04-13T03:53:50.756Z,483.21
2023-04-13T03:54:45.990Z,476.31
2023-04-13T03:55:41.034Z,478.02
2023-04-13T03:56:36.057Z,479.05
2023-04-13T03:57:31.059Z,484.62
2023-04-13T03:58:26.137Z,488.52
2023-04-13T03:59:21.152Z,497.64
2023-04-13T04:00:16.321Z,509.03
2023-04-13T04:01:11.479Z,516.92
2023-04-13T04:02:06.583Z,517.73
2023-04-13T04:03:01.666Z,520.15
2023-04-13T04:03:56.878Z,370.48
2023-04-13T04:04:51.788Z,327.58
2023-04-13T04:05:46.939Z,314.69
2023-04-13T04:06:41.862Z,310.82
2023-04-13T04:07:36.897Z,326.92
2023-04-13T04:08:31.906Z,361.50
2023-04-13T04:09:27.035Z,358.34
2023-04-13T04:10:22.233Z,376.86
2023-04-13T04:11:17.256Z,401.22
2023-04-13T04:12:14.478Z,397.87
2023-04-13T04:13:07.322Z,419.92
2023-04-13T04:14:06.506Z,416.51
2023-04-13T04:15:01.586Z,446.94
2023-04-13T04:15:56.608Z,464.37
2023-04-13T04:16:51.660Z,475.63
2023-04-13T04:17:46.938Z,460.52
2023-04-13T04:18:42.167Z,455.80
2023-04-13T04:19:37.284Z,474.95
2023-04-13T04:20:32.402Z,489.60
2023-04-13T04:21:27.374Z,499.13
2023-04-13T04:22:22.458Z,506.33
2023-04-13T04:23:19.810Z,512.55
2023-04-13T04:24:12.709Z,515.33
2023-04-13T04:25:07.739Z,509.81
2023-04-13T04:26:02.869Z,512.95
2023-04-13T04:26:57.911Z,520.56
2023-04-13T04:27:53.003Z,526.72
2023-04-13T04:28:47.983Z,521.78
2023-04-13T04:29:43.088Z,518.53
2023-04-13T04:32:07.004Z,495.79
2023-04-13T04:33:01.022Z,498.38
2023-04-13T04:33:56.375Z,510.20
2023-04-13T04:34:51.525Z,515.33
2023-04-13T04:35:46.971Z,526.72
2023-04-13T04:36:41.959Z,527.56
2023-04-13T04:37:37.260Z,527.14
2023-04-13T04:38:32.684Z,525.48
2023-04-13T04:39:27.866Z,506.33
2023-04-13T04:40:23.229Z,518.53
2023-04-13T04:41:18.557Z,529.23
2023-04-13T04:42:14.003Z,518.13
2023-04-13T04:43:09.237Z,493.22
2023-04-13T04:44:04.502Z,410.86
2023-04-13T04:44:59.855Z,422.58
2023-04-13T04:45:55.305Z,443.37
2023-04-13T04:46:50.595Z,463.40
2023-04-13T04:47:45.741Z,479.05
2023-04-13T04:48:41.060Z,460.52
2023-04-13T04:49:36.411Z,441.32
2023-04-13T04:50:31.593Z,444.85
2023-04-13T04:51:27.051Z,456.11
2023-04-13T04:52:25.034Z,465.02
2023-04-13T04:53:17.488Z,380.83
2023-04-13T04:54:12.926Z,350.31
2023-04-13T04:55:08.082Z,388.14
2023-04-13T04:56:03.621Z,415.99
2023-04-13T04:56:58.748Z,431.89
2023-04-13T04:57:54.111Z,432.45
2023-04-13T04:58:49.269Z,424.19
2023-04-13T04:59:44.613Z,428.28
2023-04-13T05:00:39.854Z,416.77
2023-04-13T05:01:35.418Z,412.13
2023-04-13T05:02:30.672Z,414.70
2023-04-13T05:03:25.846Z,425.01
2023-04-13T05:04:21.130Z,409.60
2023-04-13T05:05:16.552Z,410.61
2023-04-13T05:06:11.885Z,425.82
2023-04-13T05:07:07.132Z,439.28
2023-04-13T05:08:02.372Z,434.70
2023-04-13T05:08:58.094Z,410.61
2023-04-13T05:09:53.080Z,412.90
2023-04-13T05:10:48.694Z,413.16
2023-04-13T05:11:43.784Z,422.85
2023-04-13T05:12:39.294Z,428.83
2023-04-13T05:13:34.525Z,427.46
2023-04-13T05:14:29.898Z,439.28
2023-04-13T05:15:25.196Z,443.08
2023-04-13T05:16:20.730Z,456.73
2023-04-13T05:17:15.841Z,469.60
2023-04-13T05:18:11.393Z,451.17
2023-04-13T05:19:06.601Z,446.04
2023-04-13T05:20:01.987Z,457.67
2023-04-13T05:20:57.244Z,460.84
2023-04-13T05:21:52.741Z,459.57
2023-04-13T05:22:48.097Z,457.36
2023-04-13T05:23:43.378Z,444.26
2023-04-13T05:24:38.609Z,448.74
2023-04-13T05:25:33.926Z,457.05
2023-04-13T05:26:29.268Z,458.30
2023-04-13T05:27:24.637Z,459.89
2023-04-13T05:28:19.882Z,460.20
2023-04-13T05:29:15.270Z,464.37
2023-04-13T05:30:10.694Z,467.30
2023-04-13T05:31:06.053Z,466.32
2023-04-13T05:32:01.378Z,471.59
2023-04-13T05:32:56.959Z,472.93
2023-04-13T05:33:52.092Z,479.05
2023-04-13T05:34:47.477Z,476.65
2023-04-13T05:35:42.970Z,467.62
2023-04-13T05:36:38.300Z,456.42
2023-04-13T05:37:33.424Z,447.24
2023-04-13T05:38:28.918Z,439.86
2023-04-13T05:39:24.188Z,439.86
2023-04-13T05:40:19.821Z,412.90
2023-04-13T05:41:15.009Z,411.88
2023-04-13T05:42:10.486Z,410.11
2023-04-13T05:43:06.061Z,423.12
2023-04-13T05:44:01.456Z,441.61
2023-04-13T05:44:56.773Z,441.61
2023-04-13T05:45:52.349Z,440.45
2023-04-13T05:46:47.646Z,445.15
2023-04-13T05:47:43.289Z,436.41
2023-04-13T05:48:38.486Z,417.03
2023-04-13T05:49:34.012Z,412.13
2023-04-13T05:50:29.446Z,404.14
2023-04-13T05:51:24.750Z,413.67
2023-04-13T05:52:20.039Z,425.28
2023-04-13T05:53:15.764Z,418.60
2023-04-13T05:54:10.928Z,377.73
2023-04-13T05:55:06.496Z,377.73
2023-04-13T05:56:01.688Z,372.16
2023-04-13T05:56:57.136Z,394.34
2023-04-13T05:57:52.422Z,416.51
2023-04-13T05:58:47.770Z,438.71
2023-04-13T05:59:43.184Z,440.74
2023-04-13T06:00:38.840Z,435.55
2023-04-13T06:01:33.976Z,447.24
2023-04-13T06:02:29.533Z,434.99
2023-04-13T06:03:25.010Z,412.90
2023-04-13T06:04:20.332Z,429.94
2023-04-13T06:05:15.615Z,444.26
2023-04-13T06:06:10.843Z,451.78
2023-04-13T06:07:06.283Z,463.08
2023-04-13T06:08:01.685Z,474.95
2023-04-13T06:08:57.185Z,488.52
2023-04-13T06:09:52.322Z,496.16
2023-04-13T06:10:47.785Z,495.79
2023-04-13T06:11:42.965Z,488.88
2023-04-13T06:12:38.276Z,484.62
2023-04-13T06:13:33.868Z,454.87
2023-04-13T06:14:29.042Z,459.25
2023-04-13T06:15:24.710Z,453.63
2023-04-13T06:16:19.883Z,443.37
2023-04-13T06:17:15.471Z,460.84
2023-04-13T06:18:10.724Z,457.36
2023-04-13T06:19:06.223Z,417.29
2023-04-13T06:20:01.658Z,335.27
2023-04-13T06:20:56.936Z,271.70
2023-04-13T06:21:52.208Z,290.20
2023-04-13T06:22:47.654Z,321.79
2023-04-13T06:23:43.325Z,333.57
2023-04-13T06:24:38.542Z,286.15
2023-04-13T06:25:34.052Z,301.67
2023-04-13T06:26:29.257Z,340.14
2023-04-13T06:27:24.691Z,370.90
2023-04-13T06:28:20.154Z,393.18
2023-04-13T06:29:15.433Z,394.34
2023-04-13T06:30:10.911Z,415.99
2023-04-13T06:31:06.200Z,436.12
2023-04-13T06:32:01.627Z,446.04
2023-04-13T06:32:56.968Z,460.52
2023-04-13T06:33:52.432Z,463.72
2023-04-13T06:34:47.753Z,482.86
2023-04-13T06:35:43.093Z,494.32
2023-04-13T06:36:38.387Z,494.68
2023-04-13T06:37:33.855Z,503.65
2023-04-13T06:38:29.154Z,509.81
2023-04-13T06:39:26.016Z,520.96
2023-04-13T06:40:20.071Z,548.83
2023-04-13T06:41:15.638Z,572.39
2023-04-13T06:42:10.823Z,586.48
2023-04-13T06:43:11.049Z,606.21
2023-04-13T06:44:02.478Z,598.59
2023-04-13T06:44:56.946Z,590.12
2023-04-13T06:45:52.271Z,573.87
2023-04-13T06:46:47.741Z,593.80
2023-04-13T06:47:43.245Z,604.56
2023-04-13T06:48:38.547Z,608.98
2023-04-13T06:49:33.718Z,633.87
2023-04-13T06:50:28.893Z,643.66
2023-04-13T06:51:24.189Z,649.93
2023-04-13T06:52:19.750Z,657.63
2023-04-13T06:53:14.966Z,669.51
2023-04-13T06:54:10.433Z,666.17
2023-04-13T06:55:05.536Z,660.89
2023-04-13T06:56:00.950Z,664.84
2023-04-13T06:56:56.257Z,677.68
2023-04-13T06:57:51.748Z,670.86
2023-04-13T06:58:47.151Z,649.30
2023-04-13T06:59:42.662Z,633.87
2023-04-13T07:00:37.864Z,606.21
2023-04-13T07:01:33.225Z,601.84
2023-04-13T07:02:28.642Z,630.28
2023-04-13T07:03:23.924Z,658.28
2023-04-13T07:04:19.389Z,671.53
2023-04-13T07:05:14.674Z,665.50
2023-04-13T07:06:09.970Z,637.51
2023-04-13T07:07:05.441Z,665.50
2023-04-13T07:08:00.848Z,639.96
2023-04-13T07:08:56.595Z,608.42
2023-04-13T07:09:51.776Z,582.39
2023-04-13T07:10:47.212Z,600.21
2023-04-13T07:11:42.516Z,624.38
2023-04-13T07:12:37.950Z,639.96
2023-04-13T07:13:33.454Z,669.51
2023-04-13T07:14:28.563Z,688.17
2023-04-13T07:15:23.842Z,700.46
2023-04-13T07:16:19.397Z,710.15
2023-04-13T07:17:14.760Z,694.62
2023-04-13T07:18:10.046Z,691.74
2023-04-13T07:19:05.634Z,727.19
2023-04-13T07:20:00.814Z,747.06
2023-04-13T07:20:56.132Z,777.07
2023-04-13T07:21:51.441Z,779.33
2023-04-13T07:22:46.903Z,798.45
2023-04-13T07:23:42.793Z,825.09
2023-04-13T07:24:38.163Z,744.23
2023-04-13T07:25:33.530Z,769.45
2023-04-13T07:26:28.930Z,802.77
2023-04-13T07:27:24.321Z,826.11
2023-04-13T07:28:19.697Z,837.52
2023-04-13T07:29:15.406Z,843.87
2023-04-13T07:30:10.487Z,834.38
2023-04-13T07:31:05.899Z,754.24
2023-04-13T07:32:01.345Z,688.17
2023-04-13T07:32:56.680Z,704.90
2023-04-13T07:33:52.077Z,739.28
2023-04-13T07:34:47.504Z,778.88
2023-04-13T07:35:42.583Z,814.52
2023-04-13T07:36:37.767Z,834.38
2023-04-13T07:37:33.247Z,854.13
2023-04-13T07:38:28.545Z,889.41
2023-04-13T07:39:24.225Z,925.16
2023-04-13T07:40:19.254Z,940.14
2023-04-13T07:41:14.303Z,768.57
2023-04-13T07:42:09.378Z,545.24
2023-04-13T07:43:06.302Z,584.43
2023-04-13T07:44:01.380Z,574.86
2023-04-13T07:44:56.489Z,571.90
2023-04-13T07:45:51.553Z,617.44
2023-04-13T07:46:46.742Z,684.63
2023-04-13T07:47:41.689Z,720.12
2023-04-13T07:48:36.732Z,736.02
2023-04-13T07:49:31.756Z,742.58
2023-04-13T07:50:26.969Z,770.78
2023-04-13T07:51:22.039Z,818.02
2023-04-13T07:52:17.142Z,870.84
2023-04-13T07:53:12.129Z,859.07
2023-04-13T07:54:07.205Z,884.11
2023-04-13T07:55:02.405Z,929.02
2023-04-13T07:55:57.914Z,929.02
2023-04-13T07:56:53.482Z,873.69
2023-04-13T07:57:48.849Z,926.44
2023-04-13T07:58:44.318Z,865.76
2023-04-13T07:59:39.523Z,806.65
2023-04-13T08:00:35.017Z,880.03
2023-04-13T08:01:30.542Z,934.22
2023-04-13T08:02:25.994Z,942.80
2023-04-13T08:03:21.567Z,973.74
2023-04-13T08:04:17.147Z,1015.21
2023-04-13T08:05:12.411Z,1031.69
2023-04-13T08:06:07.821Z,935.53
2023-04-13T08:07:03.258Z,882.94
2023-04-13T08:07:58.691Z,894.17
2023-04-13T08:08:54.264Z,896.58
2023-04-13T08:09:49.227Z,882.94
2023-04-13T08:10:44.275Z,828.16
2023-04-13T08:11:39.270Z,807.62
2023-04-13T08:12:34.425Z,842.27
2023-04-13T08:13:29.543Z,842.80
2023-04-13T08:14:24.518Z,869.71
2023-04-13T08:15:19.548Z,962.51
2023-04-13T08:16:14.730Z,1080.10
2023-04-13T08:17:09.769Z,1160.87
2023-04-13T08:18:04.916Z,1238.40
2023-04-13T08:19:00.165Z,1292.35
2023-04-13T08:19:55.031Z,1356.71
2023-04-13T08:20:50.170Z,1344.41
2023-04-13T08:21:45.273Z,1392.07
2023-04-13T08:22:43.032Z,1329.68
2023-04-13T08:23:38.563Z,1182.46
2023-04-13T08:24:33.775Z,962.51
2023-04-13T08:25:29.068Z,1033.28
2023-04-13T08:26:24.462Z,1193.03
2023-04-13T08:27:20.030Z,1286.13
2023-04-13T08:28:15.098Z,1336.34
2023-04-13T08:29:10.164Z,1408.23
2023-04-13T08:30:05.210Z,1316.57
2023-04-13T08:31:00.264Z,1386.29
2023-04-13T08:31:55.253Z,1465.42
2023-04-13T08:32:50.330Z,1421.72
2023-04-13T08:33:45.297Z,1420.21
2023-04-13T08:34:40.356Z,1483.33
2023-04-13T08:35:35.387Z,1507.62
2023-04-13T08:36:30.476Z,1030.09
2023-04-13T08:37:25.708Z,742.58
2023-04-13T08:38:21.340Z,747.06
2023-04-13T08:39:16.401Z,902.64
2023-04-13T08:40:11.945Z,1078.35
2023-04-13T08:41:07.354Z,1208.15
2023-04-13T08:42:02.737Z,1373.46
2023-04-13T08:42:58.178Z,1347.12
2023-04-13T08:43:53.600Z,1363.64
2023-04-13T08:44:49.019Z,1329.68
2023-04-13T08:45:48.506Z,1412.70
2023-04-13T08:46:43.746Z,1452.67
2023-04-13T08:47:39.430Z,1427.81
2023-04-13T08:48:46.191Z,1438.58
2023-04-13T08:49:31.291Z,1468.65
2023-04-13T08:50:25.724Z,1207.05
2023-04-13T08:51:21.251Z,1283.65
2023-04-13T08:52:16.997Z,1365.03
2023-04-13T08:53:12.156Z,1429.34
2023-04-13T08:54:07.359Z,1493.29
2023-04-13T08:55:02.877Z,1486.64
2023-04-13T08:55:58.348Z,1403.79
2023-04-13T08:56:53.866Z,1423.24
2023-04-13T08:57:51.167Z,1468.65
2023-04-13T08:58:44.772Z,1513.60
2023-04-13T08:59:39.849Z,1548.72
2023-04-13T09:00:35.160Z,1505.07
2023-04-13T09:01:30.209Z,1506.77
2023-04-13T09:02:25.147Z,1478.41
2023-04-13T09:03:20.493Z,1503.38
2023-04-13T09:04:15.386Z,1383.42
2023-04-13T09:05:10.584Z,1292.35
2023-04-13T09:06:05.465Z,1390.62
2023-04-13T09:07:00.450Z,1424.76
2023-04-13T09:07:55.667Z,1348.48
2023-04-13T09:08:52.080Z,1432.40
2023-04-13T09:09:47.666Z,1510.18
2023-04-13T09:10:43.161Z,1518.77
2023-04-13T09:11:38.644Z,1538.02
2023-04-13T09:12:34.000Z,1488.29
2023-04-13T09:13:29.471Z,1523.97
2023-04-13T09:14:24.823Z,1571.51
2023-04-13T09:15:20.205Z,1599.76
2023-04-13T09:16:15.609Z,1679.24
2023-04-13T09:17:11.061Z,1728.16
2023-04-13T09:18:07.455Z,1787.15
2023-04-13T09:19:02.178Z,1753.12
2023-04-13T09:19:57.358Z,1710.44
2023-04-13T09:20:52.713Z,1703.89
2023-04-13T09:21:47.942Z,1718.15
2023-04-13T09:22:44.173Z,1736.02
2023-04-13T09:23:39.051Z,1679.24
2023-04-13T09:24:34.312Z,1510.18
2023-04-13T09:25:29.959Z,1539.79
2023-04-13T09:26:25.882Z,1537.13
2023-04-13T09:27:20.959Z,1567.82
2023-04-13T09:28:16.776Z,1544.24
2023-04-13T09:29:12.896Z,1500.84
2023-04-13T09:30:07.999Z,1437.03
2023-04-13T09:31:03.291Z,1372.05
2023-04-13T09:31:58.776Z,1335.00
2023-04-13T09:32:54.588Z,1289.85
2023-04-13T09:33:50.142Z,1254.70
2023-04-13T09:34:45.348Z,1196.24
2023-04-13T09:35:41.980Z,1157.85
2023-04-13T09:36:49.548Z,1194.10
2023-04-13T09:37:34.363Z,1211.43
2023-04-13T09:38:28.765Z,1213.64
2023-04-13T09:39:24.213Z,1177.25
2023-04-13T09:40:20.085Z,1112.50
2023-04-13T09:41:15.486Z,1073.15
2023-04-13T09:42:11.313Z,1056.17
2023-04-13T09:43:06.652Z,1038.10
2023-04-13T09:44:02.929Z,948.15
2023-04-13T09:44:57.849Z,923.88
2023-04-13T09:45:53.244Z,937.50
2023-04-13T09:46:49.012Z,913.76
2023-04-13T09:47:45.163Z,913.76
2023-04-13T09:48:40.714Z,804.70
2023-04-13T09:49:36.391Z,831.78
2023-04-13T09:50:31.901Z,825.09
2023-04-13T09:51:27.256Z,823.06
2023-04-13T09:52:23.300Z,814.52
2023-04-13T09:53:18.425Z,934.22
2023-04-13T09:54:14.424Z,1103.31
2023-04-13T09:55:10.337Z,1264.20
2023-04-13T09:56:05.826Z,1255.88
2023-04-13T09:57:00.987Z,1177.25
2023-04-13T09:57:56.598Z,1236.11
2023-04-13T09:58:52.039Z,1259.43
2023-04-13T09:59:48.375Z,1307.54
2023-04-13T10:00:43.788Z,1247.66
2023-04-13T10:01:39.791Z,1403.79
2023-04-13T10:02:35.046Z,1508.47
2023-04-13T10:03:30.516Z,1519.64
2023-04-13T10:04:26.279Z,1743.96
2023-04-13T10:05:21.822Z,1669.79
2023-04-13T10:06:17.544Z,1570.59
2023-04-13T10:07:12.782Z,1447.94
2023-04-13T10:08:08.248Z,1568.74
2023-04-13T10:09:03.902Z,1703.89
2023-04-13T10:09:59.889Z,1704.98
2023-04-13T10:10:54.772Z,1801.62
2023-04-13T10:11:51.570Z,1963.23
2023-04-13T10:12:46.975Z,2142.86
2023-04-13T10:13:42.975Z,2006.01
2023-04-13T10:14:38.287Z,2066.56
2023-04-13T10:15:33.840Z,2007.52
2023-04-13T10:16:29.647Z,2025.80
2023-04-13T10:17:25.244Z,2115.69
2023-04-13T10:18:20.974Z,2110.67
2023-04-13T10:19:16.395Z,2112.34
2023-04-13T10:20:11.759Z,2174.27
2023-04-13T10:21:07.475Z,2245.58
2023-04-13T10:22:02.829Z,2375.45
2023-04-13T10:22:58.287Z,2490.67
2023-04-13T10:23:54.470Z,1980.71
2023-04-13T10:24:50.746Z,1830.02
2023-04-13T10:25:45.610Z,1960.35
2023-04-13T10:26:41.239Z,2087.57
2023-04-13T10:27:36.487Z,2024.26
2023-04-13T10:28:31.985Z,2004.51
2023-04-13T10:29:28.037Z,2317.71
2023-04-13T10:30:23.393Z,2625.37
2023-04-13T10:31:18.674Z,2749.74
2023-04-13T10:32:14.650Z,3020.36
2023-04-13T10:34:34.312Z,3335.42
2023-04-13T10:35:29.426Z,3375.47
2023-04-13T10:36:24.850Z,3414.32
2023-04-13T10:37:20.224Z,3543.46
2023-04-13T10:38:15.743Z,3224.64
2023-04-13T10:39:10.991Z,3068.97
2023-04-13T10:40:06.665Z,2934.07
2023-04-13T10:41:01.935Z,2953.54
2023-04-13T10:41:57.286Z,2960.09
2023-04-13T10:42:53.334Z,1515.32
2023-04-13T10:43:48.219Z,1313.98
2023-04-13T10:44:43.518Z,1501.69
2023-04-13T10:45:38.808Z,1793.15
2023-04-13T10:46:34.284Z,2035.06
2023-04-13T10:47:29.659Z,1982.18
2023-04-13T10:48:25.055Z,2050.69
2023-04-13T10:49:20.587Z,1979.24
2023-04-13T10:50:16.042Z,2154.96
2023-04-13T10:51:11.334Z,2285.96
2023-04-13T10:52:06.761Z,2579.71
2023-04-13T10:53:02.317Z,2834.40
2023-04-13T10:53:57.553Z,3074.27
2023-04-13T10:54:53.136Z,3207.21
2023-04-13T10:55:48.378Z,2654.08
2023-04-13T10:56:43.685Z,2732.86
2023-04-13T10:57:39.106Z,2813.49
2023-04-13T10:58:34.703Z,3113.70
2023-04-13T10:59:29.889Z,3016.95
2023-04-13T11:00:34.742Z,2988.25
2023-04-13T11:01:21.727Z,2819.43
2023-04-13T11:02:16.559Z,2934.07
2023-04-13T11:03:11.888Z,2528.41
2023-04-13T11:04:09.869Z,2615.08
2023-04-13T11:05:03.735Z,2678.03
2023-04-13T11:05:58.152Z,2691.53
2023-04-13T11:06:53.695Z,2414.10
2023-04-13T11:07:55.065Z,2068.16
2023-04-13T11:08:48.405Z,2239.93
2023-04-13T11:09:39.915Z,2342.10
2023-04-13T11:10:35.507Z,2000.00
2023-04-13T11:11:30.876Z,2276.22
2023-04-13T11:12:26.365Z,2526.02
2023-04-13T11:13:21.866Z,2837.41
2023-04-13T11:14:19.275Z,2911.67
2023-04-13T11:15:12.625Z,3046.21
2023-04-13T11:16:08.113Z,3106.46
2023-04-13T11:17:03.379Z,3077.81
2023-04-13T11:17:58.821Z,2798.74
2023-04-13T11:18:54.315Z,2843.45
2023-04-13T11:19:50.204Z,3008.45
2023-04-13T11:20:45.280Z,3213.00
2023-04-13T11:21:40.807Z,3329.18
2023-04-13T11:22:36.207Z,3371.21
2023-04-13T11:23:31.717Z,3373.34
2023-04-13T11:24:27.228Z,3268.05
2023-04-13T11:25:22.925Z,3152.30
2023-04-13T11:26:18.254Z,3027.21
2023-04-13T11:27:13.749Z,2993.27